sensor_id;sensor_type;location;lat;lon;timestamp;temperature;humidity
18207;DHT22;9229;52.354;20.886;2023-12-22T00:04:43;4.50;99.90
18207;DHT22;9229;52.354;20.886;2023-12-22T00:09:48;4.50;99.90
18207;DHT22;9229;52.354;20.886;2023-12-22T00:14:50;4.40;99.90
18207;DHT22;9229;52.354;20.886;2023-12-22T00:19:52;4.50;99.90
18207;DHT22;9229;52.354;20.886;2023-12-22T00:24:57;4.60;99.90
18207;DHT22;9229;52.354;20.886;2023-12-22T00:30:00;4.70;99.90
18207;DHT22;9229;52.354;20.886;2023-12-22T00:35:06;4.70;99.90
18207;DHT22;9229;52.354;20.886;2023-12-22T00:40:12;4.70;99.90
18207;DHT22;9229;52.354;20.886;2023-12-22T00:45:17;4.60;99.90
18207;DHT22;9229;52.354;20.886;2023-12-22T00:50:22;4.60;99.90
18207;DHT22;9229;52.354;20.886;2023-12-22T00:55:26;4.50;99.90
18207;DHT22;9229;52.354;20.886;2023-12-22T01:00:33;4.50;99.90
18207;DHT22;9229;52.354;20.886;2023-12-22T01:05:35;4.50;99.90
18207;DHT22;9229;52.354;20.886;2023-12-22T01:10:41;4.50;99.90
18207;DHT22;9229;52.354;20.886;2023-12-22T01:15:43;4.40;99.90
18207;DHT22;9229;52.354;20.886;2023-12-22T01:20:47;4.40;99.90
18207;DHT22;9229;52.354;20.886;2023-12-22T01:25:51;4.40;99.90
18207;DHT22;9229;52.354;20.886;2023-12-22T01:30:54;4.30;99.90
18207;DHT22;9229;52.354;20.886;2023-12-22T01:35:59;4.30;99.90
18207;DHT22;9229;52.354;20.886;2023-12-22T01:41:06;4.30;99.90
18207;DHT22;9229;52.354;20.886;2023-12-22T01:46:10;4.40;99.90
18207;DHT22;9229;52.354;20.886;2023-12-22T01:51:16;4.40;99.90
18207;DHT22;9229;52.354;20.886;2023-12-22T01:56:21;4.40;99.90
18207;DHT22;9229;52.354;20.886;2023-12-22T02:01:23;4.50;99.90
18207;DHT22;9229;52.354;20.886;2023-12-22T02:06:30;4.50;99.90
18207;DHT22;9229;52.354;20.886;2023-12-22T02:11:33;4.50;99.90
18207;DHT22;9229;52.354;20.886;2023-12-22T02:16:42;4.70;99.90
18207;DHT22;9229;52.354;20.886;2023-12-22T02:22:04;4.60;99.90
18207;DHT22;9229;52.354;20.886;2023-12-22T02:27:21;4.60;99.90
18207;DHT22;9229;52.354;20.886;2023-12-22T02:32:30;4.70;99.90
18207;DHT22;9229;52.354;20.886;2023-12-22T02:37:33;4.70;99.90
18207;DHT22;9229;52.354;20.886;2023-12-22T02:42:38;4.70;99.90
18207;DHT22;9229;52.354;20.886;2023-12-22T02:47:41;4.70;99.90
18207;DHT22;9229;52.354;20.886;2023-12-22T02:52:43;4.70;99.90
18207;DHT22;9229;52.354;20.886;2023-12-22T02:57:48;4.70;99.90
18207;DHT22;9229;52.354;20.886;2023-12-22T03:02:50;4.80;99.90
18207;DHT22;9229;52.354;20.886;2023-12-22T03:07:58;4.80;99.90
18207;DHT22;9229;52.354;20.886;2023-12-22T03:13:02;4.80;99.90
18207;DHT22;9229;52.354;20.886;2023-12-22T03:18:06;4.80;99.90
18207;DHT22;9229;52.354;20.886;2023-12-22T03:23:12;4.70;99.90
18207;DHT22;9229;52.354;20.886;2023-12-22T03:28:18;4.50;99.90
18207;DHT22;9229;52.354;20.886;2023-12-22T03:33:20;4.40;99.90
18207;DHT22;9229;52.354;20.886;2023-12-22T03:38:22;4.40;99.90
18207;DHT22;9229;52.354;20.886;2023-12-22T03:43:26;4.20;99.90
18207;DHT22;9229;52.354;20.886;2023-12-22T03:48:31;4.20;99.90
18207;DHT22;9229;52.354;20.886;2023-12-22T03:53:36;4.10;99.90
18207;DHT22;9229;52.354;20.886;2023-12-22T03:58:40;4.10;99.90
18207;DHT22;9229;52.354;20.886;2023-12-22T04:03:42;4.00;99.90
18207;DHT22;9229;52.354;20.886;2023-12-22T04:08:44;4.00;99.90
18207;DHT22;9229;52.354;20.886;2023-12-22T04:13:47;4.00;99.90
18207;DHT22;9229;52.354;20.886;2023-12-22T04:18:51;3.90;99.90
18207;DHT22;9229;52.354;20.886;2023-12-22T04:23:56;3.80;99.90
18207;DHT22;9229;52.354;20.886;2023-12-22T04:28:59;3.80;99.90
18207;DHT22;9229;52.354;20.886;2023-12-22T04:34:06;3.80;99.90
18207;DHT22;9229;52.354;20.886;2023-12-22T04:39:09;3.80;99.90
18207;DHT22;9229;52.354;20.886;2023-12-22T04:44:13;3.90;99.90
18207;DHT22;9229;52.354;20.886;2023-12-22T04:49:18;3.90;99.90
18207;DHT22;9229;52.354;20.886;2023-12-22T04:54:20;3.90;99.90
18207;DHT22;9229;52.354;20.886;2023-12-22T04:59:27;3.90;99.90
18207;DHT22;9229;52.354;20.886;2023-12-22T05:04:29;3.80;99.90
18207;DHT22;9229;52.354;20.886;2023-12-22T05:09:34;4.00;99.90
18207;DHT22;9229;52.354;20.886;2023-12-22T05:14:45;3.90;99.90
18207;DHT22;9229;52.354;20.886;2023-12-22T05:19:47;3.90;99.90
18207;DHT22;9229;52.354;20.886;2023-12-22T05:24:49;3.90;99.90
18207;DHT22;9229;52.354;20.886;2023-12-22T05:29:52;3.90;99.90
18207;DHT22;9229;52.354;20.886;2023-12-22T05:34:58;3.90;99.90
18207;DHT22;9229;52.354;20.886;2023-12-22T05:40:01;3.90;99.90
18207;DHT22;9229;52.354;20.886;2023-12-22T05:45:06;4.00;99.90
18207;DHT22;9229;52.354;20.886;2023-12-22T05:50:08;4.00;99.90
18207;DHT22;9229;52.354;20.886;2023-12-22T05:55:11;3.90;99.90
18207;DHT22;9229;52.354;20.886;2023-12-22T06:00:22;3.90;99.90
18207;DHT22;9229;52.354;20.886;2023-12-22T06:05:27;3.90;99.90
18207;DHT22;9229;52.354;20.886;2023-12-22T06:10:29;3.80;99.90
18207;DHT22;9229;52.354;20.886;2023-12-22T06:15:33;3.80;99.90
18207;DHT22;9229;52.354;20.886;2023-12-22T06:20:37;4.00;99.90
18207;DHT22;9229;52.354;20.886;2023-12-22T06:25:41;3.80;99.90
18207;DHT22;9229;52.354;20.886;2023-12-22T06:30:44;3.90;99.90
18207;DHT22;9229;52.354;20.886;2023-12-22T06:35:49;3.90;99.90
18207;DHT22;9229;52.354;20.886;2023-12-22T06:40:57;3.90;99.90
18207;DHT22;9229;52.354;20.886;2023-12-22T06:46:14;4.00;99.90
18207;DHT22;9229;52.354;20.886;2023-12-22T06:51:24;4.20;99.90
18207;DHT22;9229;52.354;20.886;2023-12-22T06:56:30;4.10;99.90
18207;DHT22;9229;52.354;20.886;2023-12-22T07:01:39;4.20;99.90
18207;DHT22;9229;52.354;20.886;2023-12-22T07:06:46;4.20;99.90
18207;DHT22;9229;52.354;20.886;2023-12-22T07:11:53;4.20;99.90
18207;DHT22;9229;52.354;20.886;2023-12-22T07:17:08;4.30;99.90
18207;DHT22;9229;52.354;20.886;2023-12-22T07:22:12;4.30;99.90
18207;DHT22;9229;52.354;20.886;2023-12-22T07:27:22;4.30;99.90
18207;DHT22;9229;52.354;20.886;2023-12-22T07:37:56;4.30;99.90
18207;DHT22;9229;52.354;20.886;2023-12-22T07:43:09;4.30;99.90
18207;DHT22;9229;52.354;20.886;2023-12-22T07:48:14;4.20;99.90
18207;DHT22;9229;52.354;20.886;2023-12-22T07:53:16;4.10;99.90
18207;DHT22;9229;52.354;20.886;2023-12-22T07:58:20;4.20;99.90
18207;DHT22;9229;52.354;20.886;2023-12-22T08:03:24;4.00;99.90
18207;DHT22;9229;52.354;20.886;2023-12-22T08:08:32;4.00;99.90
18207;DHT22;9229;52.354;20.886;2023-12-22T08:13:44;4.00;99.90
18207;DHT22;9229;52.354;20.886;2023-12-22T08:18:52;3.90;99.90
18207;DHT22;9229;52.354;20.886;2023-12-22T08:23:56;3.90;99.90
18207;DHT22;9229;52.354;20.886;2023-12-22T08:29:08;3.90;99.90
18207;DHT22;9229;52.354;20.886;2023-12-22T08:34:20;4.00;99.90
18207;DHT22;9229;52.354;20.886;2023-12-22T08:39:26;4.10;99.90
18207;DHT22;9229;52.354;20.886;2023-12-22T08:44:30;4.30;99.90
18207;DHT22;9229;52.354;20.886;2023-12-22T08:49:34;4.40;99.90
18207;DHT22;9229;52.354;20.886;2023-12-22T08:54:38;4.70;99.90
18207;DHT22;9229;52.354;20.886;2023-12-22T08:59:40;4.50;99.90
18207;DHT22;9229;52.354;20.886;2023-12-22T09:04:51;4.40;99.90
18207;DHT22;9229;52.354;20.886;2023-12-22T09:09:56;4.40;99.90
18207;DHT22;9229;52.354;20.886;2023-12-22T09:15:03;4.10;99.90
18207;DHT22;9229;52.354;20.886;2023-12-22T09:20:12;4.30;99.90
18207;DHT22;9229;52.354;20.886;2023-12-22T09:25:20;4.30;99.90
18207;DHT22;9229;52.354;20.886;2023-12-22T09:30:29;4.40;99.90
18207;DHT22;9229;52.354;20.886;2023-12-22T09:35:33;4.40;99.90
18207;DHT22;9229;52.354;20.886;2023-12-22T09:40:40;4.50;99.90
18207;DHT22;9229;52.354;20.886;2023-12-22T09:45:42;4.60;99.90
18207;DHT22;9229;52.354;20.886;2023-12-22T09:51:00;4.60;99.90
18207;DHT22;9229;52.354;20.886;2023-12-22T09:56:06;4.30;99.90
18207;DHT22;9229;52.354;20.886;2023-12-22T10:01:19;3.40;99.90
18207;DHT22;9229;52.354;20.886;2023-12-22T10:06:37;2.60;99.90
18207;DHT22;9229;52.354;20.886;2023-12-22T10:11:56;2.00;99.90
18207;DHT22;9229;52.354;20.886;2023-12-22T10:16:58;1.90;99.90
18207;DHT22;9229;52.354;20.886;2023-12-22T10:22:02;1.80;99.90
18207;DHT22;9229;52.354;20.886;2023-12-22T10:27:12;1.60;99.90
18207;DHT22;9229;52.354;20.886;2023-12-22T10:32:17;1.50;99.90
18207;DHT22;9229;52.354;20.886;2023-12-22T10:37:24;1.40;99.90
18207;DHT22;9229;52.354;20.886;2023-12-22T10:42:34;1.40;99.90
18207;DHT22;9229;52.354;20.886;2023-12-22T10:47:39;1.30;99.90
18207;DHT22;9229;52.354;20.886;2023-12-22T10:52:50;1.30;99.90
18207;DHT22;9229;52.354;20.886;2023-12-22T10:57:55;1.30;99.90
18207;DHT22;9229;52.354;20.886;2023-12-22T11:03:06;1.40;99.90
18207;DHT22;9229;52.354;20.886;2023-12-22T11:08:22;1.50;99.90
18207;DHT22;9229;52.354;20.886;2023-12-22T11:13:25;1.50;99.90
18207;DHT22;9229;52.354;20.886;2023-12-22T11:18:30;1.80;99.90
18207;DHT22;9229;52.354;20.886;2023-12-22T11:23:40;1.80;99.90
18207;DHT22;9229;52.354;20.886;2023-12-22T11:28:52;1.90;99.90
18207;DHT22;9229;52.354;20.886;2023-12-22T11:34:07;2.20;99.90
18207;DHT22;9229;52.354;20.886;2023-12-22T11:39:22;2.10;99.90
18207;DHT22;9229;52.354;20.886;2023-12-22T11:44:27;2.30;99.90
18207;DHT22;9229;52.354;20.886;2023-12-22T11:49:32;2.30;99.90
18207;DHT22;9229;52.354;20.886;2023-12-22T11:54:47;2.40;99.90
18207;DHT22;9229;52.354;20.886;2023-12-22T11:59:50;2.40;99.90
18207;DHT22;9229;52.354;20.886;2023-12-22T12:04:52;2.60;99.90
18207;DHT22;9229;52.354;20.886;2023-12-22T12:09:55;2.50;99.90
18207;DHT22;9229;52.354;20.886;2023-12-22T12:15:08;2.60;99.90
18207;DHT22;9229;52.354;20.886;2023-12-22T12:20:12;2.70;99.90
18207;DHT22;9229;52.354;20.886;2023-12-22T12:25:18;2.70;99.90
18207;DHT22;9229;52.354;20.886;2023-12-22T12:30:25;2.60;99.90
18207;DHT22;9229;52.354;20.886;2023-12-22T12:35:28;2.70;99.90
18207;DHT22;9229;52.354;20.886;2023-12-22T12:40:33;2.50;99.90
18207;DHT22;9229;52.354;20.886;2023-12-22T12:45:36;2.40;99.90
18207;DHT22;9229;52.354;20.886;2023-12-22T12:50:38;2.40;99.90
18207;DHT22;9229;52.354;20.886;2023-12-22T12:55:48;2.30;99.90
18207;DHT22;9229;52.354;20.886;2023-12-22T13:00:50;2.20;99.90
18207;DHT22;9229;52.354;20.886;2023-12-22T13:06:06;2.20;99.90
18207;DHT22;9229;52.354;20.886;2023-12-22T13:11:10;2.20;99.90
18207;DHT22;9229;52.354;20.886;2023-12-22T13:16:17;2.40;99.90
18207;DHT22;9229;52.354;20.886;2023-12-22T13:21:22;2.10;99.90
18207;DHT22;9229;52.354;20.886;2023-12-22T13:26:26;2.10;99.90
18207;DHT22;9229;52.354;20.886;2023-12-22T13:31:28;2.10;99.90
18207;DHT22;9229;52.354;20.886;2023-12-22T13:36:34;2.10;99.90
18207;DHT22;9229;52.354;20.886;2023-12-22T13:41:42;2.00;99.90
18207;DHT22;9229;52.354;20.886;2023-12-22T13:46:46;2.00;99.90
18207;DHT22;9229;52.354;20.886;2023-12-22T13:51:48;2.00;99.90
18207;DHT22;9229;52.354;20.886;2023-12-22T13:56:52;1.80;99.90
18207;DHT22;9229;52.354;20.886;2023-12-22T14:01:54;1.80;99.90
18207;DHT22;9229;52.354;20.886;2023-12-22T14:06:57;1.80;99.90
18207;DHT22;9229;52.354;20.886;2023-12-22T14:12:01;1.70;99.90
18207;DHT22;9229;52.354;20.886;2023-12-22T14:17:04;1.70;99.90
18207;DHT22;9229;52.354;20.886;2023-12-22T14:22:06;1.70;99.90
18207;DHT22;9229;52.354;20.886;2023-12-22T14:27:09;1.60;99.90
18207;DHT22;9229;52.354;20.886;2023-12-22T14:32:19;2.00;99.90
18207;DHT22;9229;52.354;20.886;2023-12-22T14:37:30;1.60;99.90
18207;DHT22;9229;52.354;20.886;2023-12-22T14:42:39;1.60;99.90
18207;DHT22;9229;52.354;20.886;2023-12-22T14:47:44;1.60;99.90
18207;DHT22;9229;52.354;20.886;2023-12-22T16:22:34;2.10;99.90
18207;DHT22;9229;52.354;20.886;2023-12-22T17:12:53;1.50;99.90
18207;DHT22;9229;52.354;20.886;2023-12-22T17:44:09;2.00;99.90
18207;DHT22;9229;52.354;20.886;2023-12-22T17:49:48;2.10;99.90
18207;DHT22;9229;52.354;20.886;2023-12-22T18:14:47;2.40;99.90
18207;DHT22;9229;52.354;20.886;2023-12-22T18:26:43;2.90;99.90
18207;DHT22;9229;52.354;20.886;2023-12-22T18:32:11;3.20;99.90
18207;DHT22;9229;52.354;20.886;2023-12-22T18:37:36;2.70;99.90
18207;DHT22;9229;52.354;20.886;2023-12-22T18:49:32;3.80;99.90
18207;DHT22;9229;52.354;20.886;2023-12-22T18:55:28;2.70;99.90
18207;DHT22;9229;52.354;20.886;2023-12-22T19:07:31;3.90;99.90
18207;DHT22;9229;52.354;20.886;2023-12-22T19:12:48;3.20;99.90
18207;DHT22;9229;52.354;20.886;2023-12-22T19:18:38;4.00;99.90
18207;DHT22;9229;52.354;20.886;2023-12-22T19:23:43;4.00;99.90
18207;DHT22;9229;52.354;20.886;2023-12-22T19:28:46;3.90;99.90
18207;DHT22;9229;52.354;20.886;2023-12-22T19:33:49;3.20;99.90
18207;DHT22;9229;52.354;20.886;2023-12-22T19:38:52;3.40;99.90
18207;DHT22;9229;52.354;20.886;2023-12-22T19:43:54;3.20;99.90
18207;DHT22;9229;52.354;20.886;2023-12-22T19:48:56;3.20;99.90
18207;DHT22;9229;52.354;20.886;2023-12-22T19:54:00;3.20;99.90
18207;DHT22;9229;52.354;20.886;2023-12-22T19:59:02;3.20;99.90
18207;DHT22;9229;52.354;20.886;2023-12-22T20:04:04;3.10;99.90
18207;DHT22;9229;52.354;20.886;2023-12-22T20:09:09;3.20;99.90
18207;DHT22;9229;52.354;20.886;2023-12-22T20:14:12;3.30;99.90
18207;DHT22;9229;52.354;20.886;2023-12-22T20:19:29;3.20;99.90
18207;DHT22;9229;52.354;20.886;2023-12-22T20:24:34;3.20;99.90
18207;DHT22;9229;52.354;20.886;2023-12-22T20:29:36;3.20;99.90
18207;DHT22;9229;52.354;20.886;2023-12-22T20:34:41;3.20;99.90
18207;DHT22;9229;52.354;20.886;2023-12-22T20:39:46;3.20;99.90
18207;DHT22;9229;52.354;20.886;2023-12-22T20:44:49;3.20;99.90
18207;DHT22;9229;52.354;20.886;2023-12-22T20:49:54;3.20;99.90
18207;DHT22;9229;52.354;20.886;2023-12-22T20:54:58;3.30;99.90
18207;DHT22;9229;52.354;20.886;2023-12-22T21:00:00;3.10;99.90
18207;DHT22;9229;52.354;20.886;2023-12-22T21:05:02;3.20;99.90
18207;DHT22;9229;52.354;20.886;2023-12-22T21:10:09;3.10;99.90
18207;DHT22;9229;52.354;20.886;2023-12-22T21:15:11;3.20;99.90
18207;DHT22;9229;52.354;20.886;2023-12-22T21:20:15;3.10;99.90
18207;DHT22;9229;52.354;20.886;2023-12-22T21:25:21;3.10;99.90
18207;DHT22;9229;52.354;20.886;2023-12-22T21:30:24;3.00;99.90
18207;DHT22;9229;52.354;20.886;2023-12-22T21:35:27;3.00;99.90
18207;DHT22;9229;52.354;20.886;2023-12-22T21:40:30;3.00;99.90
18207;DHT22;9229;52.354;20.886;2023-12-22T21:45:32;3.00;99.90
18207;DHT22;9229;52.354;20.886;2023-12-22T21:50:35;3.00;99.90
18207;DHT22;9229;52.354;20.886;2023-12-22T21:55:41;3.30;99.90
18207;DHT22;9229;52.354;20.886;2023-12-22T22:00:46;2.90;99.90
18207;DHT22;9229;52.354;20.886;2023-12-22T22:05:48;2.80;99.90
18207;DHT22;9229;52.354;20.886;2023-12-22T22:10:52;2.70;99.90
18207;DHT22;9229;52.354;20.886;2023-12-22T22:15:54;2.60;99.90
18207;DHT22;9229;52.354;20.886;2023-12-22T22:20:57;2.60;99.90
18207;DHT22;9229;52.354;20.886;2023-12-22T22:26:01;2.60;99.90
18207;DHT22;9229;52.354;20.886;2023-12-22T22:31:05;2.50;99.90
18207;DHT22;9229;52.354;20.886;2023-12-22T22:36:07;2.50;99.90
18207;DHT22;9229;52.354;20.886;2023-12-22T22:41:11;2.50;99.90
18207;DHT22;9229;52.354;20.886;2023-12-22T22:46:14;2.60;99.90
18207;DHT22;9229;52.354;20.886;2023-12-22T22:51:21;2.50;99.90
18207;DHT22;9229;52.354;20.886;2023-12-22T22:56:25;2.50;99.90
18207;DHT22;9229;52.354;20.886;2023-12-22T23:01:27;2.50;99.90
18207;DHT22;9229;52.354;20.886;2023-12-22T23:06:29;2.50;99.90
18207;DHT22;9229;52.354;20.886;2023-12-22T23:11:33;2.50;99.90
18207;DHT22;9229;52.354;20.886;2023-12-22T23:16:35;2.40;99.90
18207;DHT22;9229;52.354;20.886;2023-12-22T23:21:37;2.40;99.90
18207;DHT22;9229;52.354;20.886;2023-12-22T23:26:41;2.40;99.90
18207;DHT22;9229;52.354;20.886;2023-12-22T23:31:43;2.70;99.90
18207;DHT22;9229;52.354;20.886;2023-12-22T23:36:45;2.30;99.90
18207;DHT22;9229;52.354;20.886;2023-12-22T23:41:49;2.20;99.90
18207;DHT22;9229;52.354;20.886;2023-12-22T23:46:51;2.20;99.90
18207;DHT22;9229;52.354;20.886;2023-12-22T23:51:53;2.20;99.90
18207;DHT22;9229;52.354;20.886;2023-12-22T23:56:57;2.20;99.90
